Time;durP1;ratioP1;P1;durP2;ratioP2;P2;SDS_P1;SDS_P2;PMS_P1;PMS_P2;Temp;Humidity;BMP_temperature;BMP_pressure;BME280_temperature;BME280_humidity;BME280_pressure;Samples;Min_cycle;Max_cycle;Signal;HPM_P1;HPM_P2
2021/04/27 00:02:40;;;;;;;22.30;15.23;;;12.70;99.90;;;;;;5068915;28;20051;-53
2021/04/27 00:05:45;;;;;;;21.48;14.38;;;12.60;99.90;;;;;;5067733;28;20150;-51
2021/04/27 00:08:49;;;;;;;24.38;14.93;;;12.50;99.90;;;;;;5067375;28;20044;-53
2021/04/27 00:11:53;;;;;;;21.27;15.40;;;12.50;99.90;;;;;;5068850;28;20047;-54
2021/04/27 00:14:58;;;;;;;21.17;14.65;;;12.40;99.90;;;;;;5065188;28;20039;-52
2021/04/27 00:18:03;;;;;;;18.58;14.18;;;12.30;99.90;;;;;;5067044;28;20666;-49
2021/04/27 00:21:07;;;;;;;22.10;14.38;;;12.30;99.90;;;;;;5069016;28;20043;-54
2021/04/27 00:24:11;;;;;;;22.05;13.52;;;12.30;99.90;;;;;;5067964;28;20505;-53
2021/04/27 00:27:15;;;;;;;18.40;15.00;;;12.30;99.90;;;;;;5066709;28;20055;-50
2021/04/27 00:30:21;;;;;;;19.60;14.55;;;12.30;99.90;;;;;;5048913;28;20408;-49
2021/04/27 00:33:27;;;;;;;20.95;15.13;;;12.40;99.90;;;;;;5068681;28;20047;-49
2021/04/27 00:36:31;;;;;;;19.33;13.45;;;12.40;99.90;;;;;;5066881;28;20044;-52
2021/04/27 00:39:35;;;;;;;19.52;14.73;;;12.50;99.90;;;;;;5070522;28;20051;-50
2021/04/27 00:42:41;;;;;;;21.52;15.52;;;12.30;99.90;;;;;;5071931;28;20395;-54
2021/04/27 00:45:45;;;;;;;22.15;14.77;;;12.00;99.90;;;;;;5071178;28;20044;-51
2021/04/27 00:48:49;;;;;;;19.48;14.10;;;12.00;99.90;;;;;;5070681;28;20048;-51
2021/04/27 00:51:53;;;;;;;24.77;15.88;;;12.00;99.90;;;;;;5071968;28;20044;-50
2021/04/27 00:54:57;;;;;;;21.63;16.13;;;12.10;99.90;;;;;;5071081;28;20047;-53
2021/04/27 00:58:02;;;;;;;24.77;17.50;;;12.00;99.90;;;;;;5069720;28;20661;-48
2021/04/27 01:01:10;;;;;;;27.52;20.40;;;12.00;99.90;;;;;;5072187;28;20043;-54
2021/04/27 01:04:14;;;;;;;31.23;21.13;;;11.90;99.90;;;;;;5080109;28;20051;-50
2021/04/27 01:07:20;;;;;;;29.50;20.83;;;11.90;99.90;;;;;;5069777;28;20047;-51
2021/04/27 01:11:05;;;;;;;31.45;21.42;;;11.90;99.90;;;;;;5074726;28;20518;-49
2021/04/27 01:14:15;;;;;;;;;;;11.90;99.90;;;;;;5084557;28;20039;-50
2021/04/27 01:17:21;;;;;;;32.45;21.60;;;11.90;99.90;;;;;;5070518;28;20394;-51
2021/04/27 01:20:42;;;;;;;35.33;23.05;;;11.80;99.90;;;;;;5059367;28;20098;-53
2021/04/27 01:23:59;;;;;;;35.97;25.15;;;11.70;99.90;;;;;;5071736;28;20557;-50
2021/04/27 01:27:05;;;;;;;33.65;24.00;;;11.50;99.90;;;;;;5051096;28;20052;-51
2021/04/27 01:30:11;;;;;;;36.00;24.48;;;11.50;99.90;;;;;;5064876;28;20052;-51
2021/04/27 01:33:19;;;;;;;37.15;24.55;;;11.50;99.90;;;;;;5070857;28;20048;-49
2021/04/27 01:36:23;;;;;;;34.63;24.15;;;11.50;99.90;;;;;;5071777;28;20043;-53
2021/04/27 01:39:34;;;;;;;39.15;25.02;;;11.40;99.90;;;;;;5070363;28;20059;-48
2021/04/27 01:42:39;;;;;;;43.85;25.25;;;11.40;99.90;;;;;;5069934;28;20051;-48
2021/04/27 01:45:44;;;;;;;37.17;26.35;;;11.40;99.90;;;;;;5070824;28;20143;-49
2021/04/27 01:48:49;;;;;;;36.00;24.65;;;11.50;99.90;;;;;;5070374;28;20048;-52
2021/04/27 01:51:55;;;;;;;37.10;25.02;;;11.60;99.90;;;;;;5069692;28;20051;-49
2021/04/27 01:55:11;;;;;;;35.25;25.80;;;11.60;99.90;;;;;;5070439;28;20059;-51
2021/04/27 01:58:16;;;;;;;33.17;24.27;;;11.60;99.90;;;;;;5070326;28;20056;-50
2021/04/27 02:01:21;;;;;;;251.07;33.97;;;11.50;99.90;;;;;;5069737;28;20526;-54
2021/04/27 02:04:28;;;;;;;40.40;24.15;;;11.40;99.90;;;;;;5070287;28;20060;-51
2021/04/27 02:07:51;;;;;;;35.63;24.45;;;11.40;99.90;;;;;;5070832;28;20510;-50
2021/04/27 02:10:57;;;;;;;38.55;25.10;;;11.50;99.90;;;;;;5068797;28;20051;-47
2021/04/27 02:14:02;;;;;;;36.13;25.15;;;11.60;99.90;;;;;;5068748;28;20875;-52
2021/04/27 02:17:16;;;;;;;34.88;25.83;;;11.60;99.90;;;;;;5049578;28;20436;-51
2021/04/27 02:20:26;;;;;;;35.92;24.95;;;11.70;99.90;;;;;;5065815;28;20580;-52
2021/04/27 02:23:36;;;;;;;38.60;25.80;;;11.80;99.90;;;;;;5072055;28;20051;-49
2021/04/27 02:26:48;;;;;;;33.70;24.63;;;11.80;99.90;;;;;;5068872;28;20040;-50
2021/04/27 02:29:59;;;;;;;32.50;22.48;;;11.80;99.90;;;;;;5060738;28;20519;-48
2021/04/27 02:33:03;;;;;;;35.45;21.80;;;11.80;99.90;;;;;;5064666;28;20418;-51
2021/04/27 02:36:09;;;;;;;30.30;21.05;;;11.80;99.90;;;;;;5068854;28;20043;-52
2021/04/27 02:39:31;;;;;;;39.53;25.42;;;11.80;99.90;;;;;;5072767;28;20052;-50
2021/04/27 02:42:39;;;;;;;36.30;26.13;;;11.70;99.90;;;;;;5080476;28;20047;-47
2021/04/27 02:46:00;;;;;;;48.28;29.90;;;11.30;99.90;;;;;;5069991;28;20032;-50
2021/04/27 02:49:13;;;;;;;47.35;27.80;;;11.10;99.90;;;;;;5068312;28;20568;-52
2021/04/27 02:52:25;;;;;;;38.97;27.02;;;11.00;99.90;;;;;;5050045;28;20056;-48
2021/04/27 02:55:35;;;;;;;36.60;26.05;;;11.10;99.90;;;;;;5070125;28;20048;-51
2021/04/27 02:58:40;;;;;;;37.25;25.25;;;11.20;99.90;;;;;;5064410;28;20063;-52
2021/04/27 03:01:44;;;;;;;34.38;23.90;;;11.30;99.90;;;;;;5048308;28;20044;-54
2021/04/27 03:04:55;;;;;;;35.20;23.58;;;11.30;99.90;;;;;;5068140;28;20059;-52
2021/04/27 03:08:08;;;;;;;34.50;24.08;;;11.40;99.90;;;;;;5058240;28;20047;-52
2021/04/27 03:11:13;;;;;;;32.42;24.58;;;11.50;99.90;;;;;;5070290;28;20043;-50
2021/04/27 03:14:18;;;;;;;35.70;25.40;;;11.50;99.90;;;;;;5068571;28;20537;-48
2021/04/27 03:17:24;;;;;;;35.25;24.73;;;11.60;99.90;;;;;;5060728;28;20526;-49
2021/04/27 03:20:34;;;;;;;40.28;24.75;;;11.70;99.90;;;;;;5068898;28;20044;-49
2021/04/27 03:23:54;;;;;;;34.03;23.55;;;11.70;99.90;;;;;;5068822;28;20040;-49
2021/04/27 03:26:58;;;;;;;32.08;22.15;;;11.70;99.90;;;;;;5068177;28;20044;-49
2021/04/27 03:30:23;;;;;;;30.38;21.73;;;11.70;99.90;;;;;;5061069;28;20052;-48
2021/04/27 03:33:33;;;;;;;26.63;20.10;;;11.70;99.90;;;;;;5068221;28;20051;-50
2021/04/27 03:36:37;;;;;;;27.15;19.25;;;11.80;99.90;;;;;;5068007;28;20063;-51
2021/04/27 03:39:41;;;;;;;26.35;19.05;;;11.80;99.90;;;;;;5066408;28;20402;-50
2021/04/27 03:42:47;;;;;;;26.17;19.17;;;11.90;99.90;;;;;;5068296;28;20509;-48
2021/04/27 03:45:51;;;;;;;30.52;19.88;;;11.90;99.90;;;;;;5068080;28;20044;-48
2021/04/27 03:48:55;;;;;;;29.73;19.88;;;11.90;99.90;;;;;;5068320;28;20039;-50
2021/04/27 03:52:00;;;;;;;25.17;18.77;;;11.90;99.90;;;;;;5067317;28;20047;-51
2021/04/27 03:55:06;;;;;;;25.67;17.90;;;11.90;99.90;;;;;;5069564;28;20047;-48
2021/04/27 03:58:12;;;;;;;24.33;18.50;;;11.80;99.90;;;;;;5066539;28;20430;-51
2021/04/27 04:01:16;;;;;;;26.48;17.90;;;11.90;99.90;;;;;;5068038;28;20051;-50
2021/04/27 04:04:20;;;;;;;26.00;17.77;;;11.90;99.90;;;;;;5067954;28;20043;-50
2021/04/27 04:08:00;;;;;;;24.65;17.88;;;11.90;99.90;;;;;;5068160;28;20051;-52
2021/04/27 04:11:19;;;;;;;23.58;18.00;;;11.90;99.90;;;;;;5066538;28;20052;-49
2021/04/27 04:14:23;;;;;;;23.40;17.42;;;11.80;99.90;;;;;;5071815;28;20047;-50
2021/04/27 04:17:41;;;;;;;22.63;17.73;;;11.80;99.90;;;;;;5063592;28;20671;-48
2021/04/27 04:20:45;;;;;;;22.45;15.30;;;11.70;99.90;;;;;;5068915;28;20044;-49
2021/04/27 04:24:11;;;;;;;20.42;15.05;;;11.70;99.90;;;;;;5082063;28;20051;-48
2021/04/27 04:27:15;;;;;;;22.38;14.48;;;11.70;99.90;;;;;;5072486;28;20044;-48
2021/04/27 04:30:52;;;;;;;22.02;14.43;;;11.60;99.90;;;;;;5052377;28;20044;-49
2021/04/27 04:34:14;;;;;;;;;;;11.60;99.90;;;;;;5069963;28;20688;-52
2021/04/27 04:37:37;;;;;;;20.83;14.55;;;11.70;99.90;;;;;;5070498;28;19916;-51
2021/04/27 04:41:00;;;;;;;20.65;14.30;;;11.70;99.90;;;;;;5069255;28;20040;-48
2021/04/27 04:44:23;;;;;;;18.60;13.20;;;11.80;99.90;;;;;;5071411;28;20036;-50
2021/04/27 04:47:46;;;;;;;19.38;12.30;;;12.00;99.90;;;;;;5070463;28;20036;-48
2021/04/27 04:51:09;;;;;;;16.13;11.82;;;12.10;99.90;;;;;;5070187;28;20040;-51
2021/04/27 04:54:43;;;;;;;19.13;11.52;;;12.20;99.90;;;;;;5019450;28;20047;-50
2021/04/27 04:58:03;;;;;;;13.65;11.00;;;12.30;99.90;;;;;;5067679;28;20436;-50
2021/04/27 05:01:24;;;;;;;17.23;12.05;;;12.30;99.90;;;;;;5061521;28;20044;-46
2021/04/27 05:05:00;;;;;;;27.42;15.63;;;12.30;99.90;;;;;;5058727;28;20040;-51
2021/04/27 05:08:43;;;;;;;24.73;18.00;;;12.00;99.90;;;;;;5045127;28;20036;-53
2021/04/27 05:12:08;;;;;;;26.30;18.10;;;12.00;99.90;;;;;;5059663;28;20032;-48
2021/04/27 05:15:24;;;;;;;27.08;18.08;;;12.10;99.90;;;;;;5054679;28;20047;-47
2021/04/27 05:18:27;;;;;;;30.25;20.65;;;12.20;99.90;;;;;;5055799;28;20043;-48
2021/04/27 05:21:32;;;;;;;33.38;20.50;;;12.30;99.90;;;;;;5070558;28;20052;-49
2021/04/27 05:24:38;;;;;;;27.58;20.98;;;12.30;99.90;;;;;;5058925;28;20656;-47
2021/04/27 05:27:54;;;;;;;29.35;21.35;;;12.20;99.90;;;;;;5064201;28;20055;-51
2021/04/27 05:30:57;;;;;;;29.92;21.67;;;12.00;99.90;;;;;;5055968;28;20044;-48
2021/04/27 05:34:01;;;;;;;38.33;22.70;;;12.00;99.90;;;;;;5071404;28;20059;-51
2021/04/27 05:37:05;;;;;;;35.92;24.63;;;11.90;99.90;;;;;;5063850;28;20052;-48
2021/04/27 05:40:10;;;;;;;30.95;23.75;;;11.90;99.90;;;;;;5052445;28;20044;-49
2021/04/27 05:43:15;;;;;;;37.78;25.52;;;11.90;99.90;;;;;;5068320;28;20036;-48
2021/04/27 05:46:19;;;;;;;34.17;23.98;;;12.10;99.90;;;;;;5068903;28;20407;-49
2021/04/27 05:49:23;;;;;;;32.97;21.48;;;12.40;99.90;;;;;;5058571;28;20517;-48
2021/04/27 05:52:27;;;;;;;34.53;24.10;;;12.70;99.90;;;;;;5050414;28;20051;-48
2021/04/27 05:55:31;;;;;;;30.52;21.42;;;13.10;99.90;;;;;;5057820;28;20051;-51
2021/04/27 05:58:35;;;;;;;29.17;21.15;;;13.30;99.90;;;;;;5066758;28;20047;-49
2021/04/27 06:01:39;;;;;;;29.00;18.40;;;13.30;99.90;;;;;;5061072;28;20514;-54
2021/04/27 06:04:44;;;;;;;22.73;17.13;;;13.40;99.90;;;;;;5069537;28;20051;-48
2021/04/27 06:07:48;;;;;;;21.85;15.80;;;13.50;99.90;;;;;;5067624;28;20036;-48
2021/04/27 06:10:52;;;;;;;21.83;15.15;;;13.60;99.90;;;;;;5072907;28;20059;-48
2021/04/27 06:13:56;;;;;;;18.35;12.68;;;13.70;99.90;;;;;;5071329;28;20039;-47
2021/04/27 06:17:00;;;;;;;21.23;13.75;;;13.70;99.90;;;;;;5071287;28;20047;-49
2021/04/27 06:20:07;;;;;;;25.33;18.27;;;13.80;99.90;;;;;;5062152;28;20115;-48
2021/04/27 06:23:12;;;;;;;24.75;17.80;;;13.90;99.90;;;;;;5067891;28;20043;-47
2021/04/27 06:26:17;;;;;;;27.30;17.80;;;14.20;99.90;;;;;;5055914;28;20032;-49
2021/04/27 06:29:21;;;;;;;21.95;15.75;;;14.40;99.90;;;;;;5050700;28;20036;-49
2021/04/27 06:32:25;;;;;;;23.90;16.80;;;14.40;99.90;;;;;;5048611;28;20475;-48
2021/04/27 06:35:30;;;;;;;40.05;17.05;;;14.50;99.90;;;;;;5059447;28;20044;-51
2021/04/27 06:38:35;;;;;;;27.23;17.10;;;14.50;99.90;;;;;;5056569;28;20525;-50
2021/04/27 06:41:38;;;;;;;22.90;15.07;;;14.70;99.90;;;;;;5058004;28;20052;-47
2021/04/27 06:44:43;;;;;;;22.38;16.90;;;14.50;99.90;;;;;;5066028;28;20040;-49
2021/04/27 06:47:48;;;;;;;24.85;17.23;;;14.60;99.90;;;;;;5056993;28;20032;-50
2021/04/27 06:50:53;;;;;;;23.90;16.75;;;14.50;99.90;;;;;;5053444;28;20055;-48
2021/04/27 06:53:56;;;;;;;31.63;17.38;;;14.50;99.90;;;;;;5048475;28;22061;-48
2021/04/27 06:57:01;;;;;;;23.05;15.48;;;14.50;99.90;;;;;;5053274;28;20047;-48
2021/04/27 07:00:08;;;;;;;23.45;17.33;;;14.50;99.90;;;;;;5051032;28;20044;-48
2021/04/27 07:03:13;;;;;;;25.77;17.05;;;14.40;99.90;;;;;;5050072;28;20518;-48
2021/04/27 07:06:17;;;;;;;25.38;17.45;;;14.40;99.90;;;;;;5053499;28;20048;-50
2021/04/27 07:09:21;;;;;;;26.15;19.63;;;14.20;99.90;;;;;;5050712;28;20040;-49
2021/04/27 07:12:25;;;;;;;25.85;20.35;;;13.90;99.90;;;;;;5051492;28;20056;-47
2021/04/27 07:15:29;;;;;;;26.63;19.02;;;13.70;99.90;;;;;;5061998;28;20406;-49
2021/04/27 07:18:33;;;;;;;35.03;20.58;;;13.60;99.90;;;;;;5054937;28;20059;-48
2021/04/27 07:21:39;;;;;;;29.58;19.38;;;13.60;99.90;;;;;;5050880;28;20040;-48
2021/04/27 07:24:43;;;;;;;26.73;17.17;;;13.40;99.90;;;;;;5056284;28;20403;-48
2021/04/27 07:27:48;;;;;;;32.38;21.23;;;13.30;99.90;;;;;;5059926;28;20039;-50
2021/04/27 07:30:53;;;;;;;33.92;22.30;;;13.20;99.90;;;;;;5058233;28;20063;-48
2021/04/27 07:33:57;;;;;;;28.73;17.00;;;13.00;99.90;;;;;;5057099;28;20486;-49
2021/04/27 07:37:01;;;;;;;20.40;14.70;;;13.00;99.90;;;;;;5054087;28;20055;-47
2021/04/27 07:40:07;;;;;;;16.55;11.88;;;12.90;99.90;;;;;;5056353;28;20063;-49
2021/04/27 07:43:11;;;;;;;20.73;14.30;;;12.80;99.90;;;;;;5056316;28;20047;-47
2021/04/27 07:46:15;;;;;;;20.10;13.82;;;12.80;99.90;;;;;;5058728;28;20040;-49
2021/04/27 07:49:20;;;;;;;22.73;13.98;;;12.80;99.90;;;;;;5053626;28;20039;-46
2021/04/27 07:52:26;;;;;;;23.10;13.80;;;12.80;99.90;;;;;;5056633;28;20039;-48
2021/04/27 07:55:30;;;;;;;16.10;11.60;;;12.80;99.90;;;;;;5060073;28;20047;-47
2021/04/27 07:58:36;;;;;;;18.65;12.05;;;12.80;99.90;;;;;;5053550;28;20047;-49
2021/04/27 08:01:40;;;;;;;18.13;13.73;;;12.80;99.90;;;;;;5062566;28;20517;-47
2021/04/27 08:04:45;;;;;;;17.90;12.98;;;12.80;99.90;;;;;;5055655;28;20118;-50
2021/04/27 08:07:50;;;;;;;18.15;13.40;;;12.80;99.90;;;;;;5051564;28;20036;-47
2021/04/27 08:10:54;;;;;;;17.33;12.85;;;12.80;99.90;;;;;;5049558;28;20056;-47
2021/04/27 08:13:59;;;;;;;23.35;14.07;;;12.80;99.90;;;;;;5047451;28;20059;-48
2021/04/27 08:17:04;;;;;;;13.93;11.27;;;12.80;99.90;;;;;;5055396;28;20051;-48
2021/04/27 08:20:10;;;;;;;16.13;11.77;;;13.10;99.90;;;;;;5050586;28;20517;-47
2021/04/27 08:23:14;;;;;;;16.20;11.05;;;13.30;99.90;;;;;;5052260;28;20414;-48
2021/04/27 08:26:19;;;;;;;21.83;14.88;;;13.50;99.90;;;;;;5047606;28;20041;-52
2021/04/27 08:29:24;;;;;;;15.10;10.85;;;13.90;99.90;;;;;;5051104;28;20475;-49
2021/04/27 08:32:28;;;;;;;14.52;9.25;;;14.20;99.90;;;;;;5058596;28;20048;-52
2021/04/27 08:35:32;;;;;;;11.38;8.65;;;14.40;99.90;;;;;;5058403;28;20040;-50
2021/04/27 08:38:38;;;;;;;15.52;11.60;;;14.60;99.90;;;;;;5062541;28;20040;-52
2021/04/27 08:41:44;;;;;;;15.50;11.85;;;14.40;99.90;;;;;;5048247;28;20044;-52
2021/04/27 08:44:48;;;;;;;15.00;11.00;;;14.20;99.90;;;;;;5048449;28;20517;-48
2021/04/27 08:47:53;;;;;;;16.10;10.85;;;14.20;99.90;;;;;;5048634;28;20060;-53
2021/04/27 08:50:57;;;;;;;12.93;9.60;;;13.90;99.90;;;;;;5046024;28;20043;-50
2021/04/27 08:54:04;;;;;;;17.67;11.70;;;14.20;99.90;;;;;;5047407;28;20048;-50
2021/04/27 08:57:08;;;;;;;14.70;10.48;;;14.20;99.90;;;;;;5049492;28;20051;-51
2021/04/27 09:00:16;;;;;;;16.10;9.60;;;14.00;99.90;;;;;;5050248;28;20044;-53
2021/04/27 09:03:20;;;;;;;17.23;12.35;;;14.10;99.90;;;;;;5052826;28;20036;-48
2021/04/27 09:06:25;;;;;;;16.75;11.57;;;14.10;99.90;;;;;;5052908;28;20410;-52
2021/04/27 09:09:44;;;;;;;19.20;15.43;;;14.00;99.90;;;;;;5051217;28;20044;-50
2021/04/27 09:13:09;;;;;;;20.17;15.23;;;13.90;99.90;;;;;;5052561;28;20055;-47
2021/04/27 09:16:26;;;;;;;27.35;20.55;;;13.70;99.90;;;;;;5056210;28;20051;-50
2021/04/27 09:19:52;;;;;;;26.73;19.75;;;13.50;99.90;;;;;;5054060;28;20060;-50
2021/04/27 09:23:08;;;;;;;24.05;16.85;;;13.50;99.90;;;;;;5050227;28;20036;-52
2021/04/27 09:26:16;;;;;;;24.60;17.77;;;13.60;99.90;;;;;;5054668;28;20064;-49
2021/04/27 09:29:50;;;;;;;24.77;17.48;;;13.50;99.90;;;;;;5055983;28;20052;-52
2021/04/27 09:32:58;;;;;;;26.67;17.75;;;12.90;99.90;;;;;;5057231;28;20054;-50
2021/04/27 09:36:03;;;;;;;28.35;16.35;;;12.70;99.90;;;;;;5053545;28;20043;-48
2021/04/27 09:39:09;;;;;;;25.33;17.17;;;12.70;99.90;;;;;;5056763;28;20052;-48
2021/04/27 09:42:17;;;;;;;23.85;17.48;;;12.70;99.90;;;;;;5055477;28;20044;-48
2021/04/27 09:45:22;;;;;;;28.92;17.15;;;12.70;99.90;;;;;;5057554;28;20040;-51
2021/04/27 09:48:34;;;;;;;20.92;14.68;;;12.40;99.90;;;;;;5066549;28;20071;-48
2021/04/27 09:51:40;;;;;;;22.27;16.25;;;12.40;99.90;;;;;;5065591;28;20059;-49
2021/04/27 09:55:20;;;;;;;20.75;15.80;;;12.80;99.90;;;;;;5051542;28;20056;-48
2021/04/27 09:58:24;;;;;;;19.38;13.85;;;13.10;99.90;;;;;;5066227;28;20043;-48
2021/04/27 10:01:29;;;;;;;22.90;14.00;;;13.20;99.90;;;;;;5053451;28;20063;-50
2021/04/27 10:04:33;;;;;;;20.85;14.75;;;13.30;99.90;;;;;;5055410;28;20486;-48
2021/04/27 10:07:39;;;;;;;21.25;16.23;;;12.90;99.90;;;;;;5052807;28;20400;-48
2021/04/27 10:10:48;;;;;;;22.05;16.92;;;12.70;99.90;;;;;;5052237;28;20044;-47
2021/04/27 10:13:54;;;;;;;22.42;17.10;;;12.50;99.90;;;;;;5061835;28;20338;-47
2021/04/27 10:16:58;;;;;;;26.80;17.55;;;12.50;99.90;;;;;;5058576;28;20048;-47
2021/04/27 10:20:11;;;;;;;27.95;18.75;;;12.70;99.90;;;;;;5061984;28;20348;-50
2021/04/27 10:23:15;;;;;;;23.25;16.52;;;12.60;99.90;;;;;;5058084;28;20044;-51
2021/04/27 10:26:25;;;;;;;22.67;15.15;;;12.90;99.90;;;;;;5051376;28;20494;-49
2021/04/27 10:29:29;;;;;;;19.73;15.27;;;13.30;99.90;;;;;;5049922;28;20040;-47
2021/04/27 10:32:33;;;;;;;19.83;13.73;;;13.60;99.90;;;;;;5066608;28;20047;-47
2021/04/27 10:36:02;;;;;;;19.73;16.48;;;13.80;99.90;;;;;;5055403;28;20048;-48
2021/04/27 10:39:09;;;;;;;25.67;18.77;;;13.80;99.90;;;;;;5050492;28;20044;-47
2021/04/27 10:42:21;;;;;;;33.35;20.73;;;13.40;99.90;;;;;;5059523;28;20352;-52
2021/04/27 10:45:31;;;;;;;27.83;20.38;;;13.10;99.90;;;;;;5055116;28;20036;-53
2021/04/27 10:48:44;;;;;;;26.30;19.63;;;13.10;99.90;;;;;;5053020;28;20043;-47
2021/04/27 10:51:52;;;;;;;28.15;20.05;;;12.90;99.90;;;;;;5056960;28;20656;-48
2021/04/27 10:55:26;;;;;;;24.50;18.35;;;12.90;99.90;;;;;;5061439;28;20047;-48
2021/04/27 10:58:55;;;;;;;25.10;18.33;;;13.00;99.90;;;;;;5059698;28;20068;-53
2021/04/27 11:02:17;;;;;;;25.05;17.75;;;13.00;99.90;;;;;;5068577;28;21519;-49
2021/04/27 11:05:22;;;;;;;22.80;17.60;;;12.70;99.90;;;;;;5068828;28;20047;-53
2021/04/27 11:09:11;;;;;;;24.35;17.67;;;12.80;99.90;;;;;;5061414;28;20044;-47
2021/04/27 11:12:33;;;;;;;23.08;17.70;;;12.30;99.90;;;;;;5052428;28;20043;-50
2021/04/27 11:15:39;;;;;;;;;;;12.20;99.90;;;;;;5049827;28;20043;-49
2021/04/27 11:18:46;;;;;;;25.17;15.93;;;12.50;99.90;;;;;;5049460;28;19919;-48
2021/04/27 11:21:53;;;;;;;19.95;15.52;;;13.00;99.90;;;;;;5052116;28;20422;-47
2021/04/27 11:24:57;;;;;;;18.70;14.38;;;13.10;99.90;;;;;;5056483;28;20047;-49
2021/04/27 11:28:03;;;;;;;19.50;14.18;;;13.60;99.90;;;;;;5069813;28;20527;-48
2021/04/27 11:31:16;;;;;;;19.30;15.20;;;14.20;99.90;;;;;;5053505;28;20059;-51
2021/04/27 11:34:23;;;;;;;20.77;14.88;;;13.50;99.90;;;;;;5059496;28;20051;-49
2021/04/27 11:37:51;;;;;;;21.65;14.68;;;13.40;99.90;;;;;;5069170;28;20048;-50
2021/04/27 11:40:55;;;;;;;17.83;13.75;;;13.70;99.90;;;;;;5070189;28;20039;-47
2021/04/27 11:44:05;;;;;;;19.35;14.32;;;13.80;99.90;;;;;;5058612;28;20036;-49
2021/04/27 11:47:17;;;;;;;22.88;15.32;;;13.80;99.90;;;;;;5055645;28;20044;-49
2021/04/27 11:50:25;;;;;;;21.40;15.93;;;13.60;99.90;;;;;;5052448;28;20048;-47
2021/04/27 11:53:31;;;;;;;20.25;15.10;;;13.80;99.90;;;;;;5068594;28;20047;-50
2021/04/27 11:57:12;;;;;;;23.58;16.38;;;13.50;99.90;;;;;;5066644;28;20044;-47
2021/04/27 12:00:18;;;;;;;20.23;14.90;;;13.10;99.90;;;;;;5068708;28;20040;-49
2021/04/27 12:03:26;;;;;;;17.02;13.35;;;13.70;99.90;;;;;;5048572;28;20040;-51
2021/04/27 12:06:31;;;;;;;19.98;12.75;;;14.50;99.90;;;;;;5065538;28;20040;-49
2021/04/27 12:09:41;;;;;;;18.08;13.77;;;15.00;99.90;;;;;;5067311;28;20538;-48
2021/04/27 12:12:47;;;;;;;18.00;12.20;;;14.60;99.90;;;;;;5068869;28;20051;-48
2021/04/27 12:16:12;;;;;;;16.95;12.63;;;15.10;99.90;;;;;;5062856;28;20051;-48
2021/04/27 12:19:22;;;;;;;14.60;11.82;;;15.60;99.90;;;;;;5056918;28;20618;-47
2021/04/27 12:22:28;;;;;;;18.35;13.00;;;15.60;99.90;;;;;;5048244;28;20551;-50
2021/04/27 12:25:34;;;;;;;21.85;12.80;;;14.70;99.90;;;;;;5050816;28;20044;-49
2021/04/27 12:28:38;;;;;;;17.80;12.85;;;14.60;99.90;;;;;;5054079;28;20109;-50
2021/04/27 12:31:44;;;;;;;16.98;13.25;;;14.40;99.90;;;;;;5055923;28;20451;-50
2021/04/27 12:35:02;;;;;;;17.48;14.15;;;13.90;99.90;;;;;;5050832;28;20044;-48
2021/04/27 12:38:15;;;;;;;17.17;13.68;;;13.70;99.90;;;;;;5056355;28;20036;-47
2021/04/27 12:41:19;;;;;;;21.33;13.93;;;13.80;99.90;;;;;;5053531;28;20044;-49
2021/04/27 12:44:38;;;;;;;16.13;13.23;;;13.90;99.90;;;;;;5054798;28;20530;-47
2021/04/27 12:47:45;;;;;;;18.50;13.73;;;14.10;99.90;;;;;;5070312;28;20036;-49
2021/04/27 12:50:58;;;;;;;17.02;13.98;;;13.80;99.90;;;;;;5072319;28;20043;-47
2021/04/27 12:54:02;;;;;;;18.67;12.85;;;13.70;99.90;;;;;;5073798;28;20040;-50
2021/04/27 12:57:17;;;;;;;16.40;11.43;;;13.90;99.90;;;;;;5065336;28;20039;-50
2021/04/27 13:00:22;;;;;;;16.25;12.43;;;13.90;99.90;;;;;;5057102;28;20121;-48
2021/04/27 13:03:30;;;;;;;15.57;10.77;;;14.10;99.90;;;;;;5071556;28;20533;-48
2021/04/27 13:06:35;;;;;;;16.88;10.55;;;14.40;99.90;;;;;;5058246;28;20132;-49
2021/04/27 13:09:40;;;;;;;13.63;9.27;;;14.90;99.90;;;;;;5060571;28;20044;-49
2021/04/27 13:12:46;;;;;;;10.98;8.50;;;15.40;99.90;;;;;;5063255;28;20039;-47
2021/04/27 13:15:59;;;;;;;14.57;8.18;;;16.10;99.90;;;;;;5071440;28;20460;-46
2021/04/27 13:19:04;;;;;;;12.60;9.20;;;16.60;99.90;;;;;;5063291;28;20063;-45
2021/04/27 13:22:13;;;;;;;13.00;8.10;;;16.80;99.90;;;;;;5063921;28;20051;-49
2021/04/27 13:25:29;;;;;;;11.57;8.35;;;17.00;99.90;;;;;;5062860;28;20048;-50
2021/04/27 13:28:36;;;;;;;14.13;8.98;;;17.40;99.90;;;;;;5068177;28;20067;-50
2021/04/27 13:31:40;;;;;;;13.43;8.10;;;17.50;99.90;;;;;;5066718;28;20502;-49
2021/04/27 13:34:44;;;;;;;14.95;9.23;;;17.60;99.90;;;;;;5058871;28;20052;-53
2021/04/27 13:37:48;;;;;;;12.90;10.15;;;17.90;99.90;;;;;;5055326;28;20055;-49
2021/04/27 13:40:54;;;;;;;15.25;11.45;;;16.90;99.90;;;;;;5055229;28;20051;-48
2021/04/27 13:43:59;;;;;;;12.63;9.25;;;16.00;99.90;;;;;;5054004;28;20529;-49
2021/04/27 13:47:04;;;;;;;12.93;8.65;;;16.30;99.90;;;;;;5052020;28;20036;-48
2021/04/27 13:50:10;;;;;;;11.65;8.73;;;16.40;99.90;;;;;;5057217;28;20047;-48
2021/04/27 13:53:15;;;;;;;12.15;8.07;;;17.40;99.90;;;;;;5067815;28;20051;-48
2021/04/27 13:56:19;;;;;;;11.50;7.25;;;18.80;99.90;;;;;;5053318;28;20048;-49
2021/04/27 13:59:23;;;;;;;14.35;8.23;;;19.30;99.90;;;;;;5061764;28;20518;-50
2021/04/27 14:02:28;;;;;;;11.45;8.50;;;19.30;99.90;;;;;;5058922;28;20132;-49
2021/04/27 14:05:32;;;;;;;9.60;7.10;;;18.80;99.90;;;;;;5053053;28;20044;-49
2021/04/27 14:08:39;;;;;;;13.55;7.68;;;18.70;99.90;;;;;;5070852;28;20039;-48
2021/04/27 14:11:43;;;;;;;17.58;8.23;;;17.90;99.90;;;;;;5065777;28;20063;-48
2021/04/27 14:14:48;;;;;;;12.20;8.07;;;18.10;99.90;;;;;;5055622;28;20043;-49
2021/04/27 14:17:53;;;;;;;10.50;7.90;;;17.80;99.90;;;;;;5050777;28;20040;-50
2021/04/27 14:20:57;;;;;;;10.90;7.32;;;18.20;99.90;;;;;;5060026;28;20522;-48
2021/04/27 14:24:02;;;;;;;9.50;7.47;;;18.30;99.90;;;;;;5067441;28;20044;-49
2021/04/27 14:27:07;;;;;;;8.93;7.00;;;18.50;99.90;;;;;;5058262;28;20044;-48
2021/04/27 14:30:13;;;;;;;9.02;7.10;;;18.40;99.90;;;;;;5055722;28;20040;-48
2021/04/27 14:33:18;;;;;;;9.80;6.40;;;18.50;99.90;;;;;;5055252;28;20040;-49
2021/04/27 14:36:23;;;;;;;11.98;7.45;;;18.50;99.90;;;;;;5052024;28;20577;-48
2021/04/27 14:39:28;;;;;;;12.60;7.07;;;17.50;99.90;;;;;;5066645;28;20039;-51
2021/04/27 14:42:31;;;;;;;10.55;7.57;;;16.40;99.90;;;;;;5060687;28;20055;-48
2021/04/27 14:45:36;;;;;;;11.90;7.88;;;15.80;99.90;;;;;;5061384;28;20538;-50
2021/04/27 14:48:40;;;;;;;10.65;7.60;;;15.20;99.90;;;;;;5055456;28;20043;-49
2021/04/27 14:51:45;;;;;;;10.48;7.30;;;15.20;99.90;;;;;;5057132;28;20048;-50
2021/04/27 14:54:50;;;;;;;15.30;8.00;;;15.30;99.90;;;;;;5053967;28;20059;-49
2021/04/27 14:57:54;;;;;;;13.52;7.13;;;15.70;99.90;;;;;;5053776;28;20060;-50
2021/04/27 15:00:58;;;;;;;9.93;6.65;;;16.00;99.90;;;;;;5065544;28;20043;-47
2021/04/27 15:04:03;;;;;;;8.52;6.65;;;16.20;99.90;;;;;;5069512;28;20683;-49
2021/04/27 15:07:07;;;;;;;8.63;6.07;;;16.30;99.90;;;;;;5049878;28;20048;-49
2021/04/27 15:10:11;;;;;;;8.93;6.75;;;16.30;99.90;;;;;;5067437;28;20052;-49
2021/04/27 15:13:15;;;;;;;9.90;5.95;;;16.50;99.90;;;;;;5063367;28;20037;-53
2021/04/27 15:16:19;;;;;;;7.85;6.03;;;16.60;99.90;;;;;;5069640;28;20070;-48
2021/04/27 15:19:23;;;;;;;9.70;6.75;;;16.60;99.90;;;;;;5062205;28;20077;-50
2021/04/27 15:22:28;;;;;;;8.25;6.15;;;16.40;99.90;;;;;;5065847;28;20044;-49
2021/04/27 15:25:32;;;;;;;7.82;5.97;;;16.30;99.90;;;;;;5052915;28;20403;-48
2021/04/27 15:28:37;;;;;;;10.43;5.93;;;16.00;99.90;;;;;;5067106;28;20047;-50
2021/04/27 15:31:46;;;;;;;9.27;6.30;;;15.90;99.90;;;;;;5066862;28;20039;-51
2021/04/27 15:34:50;;;;;;;10.27;6.63;;;15.20;99.90;;;;;;5062673;28;20066;-51
2021/04/27 15:37:54;;;;;;;8.65;5.88;;;15.10;99.90;;;;;;5059776;28;20407;-48
2021/04/27 15:40:58;;;;;;;9.20;6.05;;;15.20;99.90;;;;;;5066064;28;20035;-49
2021/04/27 15:44:04;;;;;;;10.05;6.38;;;15.30;99.90;;;;;;5068261;28;20043;-48
2021/04/27 15:47:08;;;;;;;9.82;7.03;;;15.40;99.90;;;;;;5068588;28;20035;-51
2021/04/27 15:50:16;;;;;;;13.90;7.63;;;15.40;99.90;;;;;;5061205;28;20043;-51
2021/04/27 15:53:20;;;;;;;12.32;7.18;;;15.50;99.90;;;;;;5053887;28;20439;-49
2021/04/27 15:56:25;;;;;;;14.57;9.85;;;15.50;99.90;;;;;;5054937;28;20047;-49
2021/04/27 15:59:32;;;;;;;17.70;11.15;;;15.60;99.90;;;;;;5064164;28;20040;-55
2021/04/27 16:02:36;;;;;;;12.52;9.23;;;15.80;99.90;;;;;;5069823;28;21682;-51